createdAt,value
2018-04-29T00:00:59.564Z,6.50
2018-04-29T00:01:59.552Z,5.90
2018-04-29T00:02:59.566Z,7.40
2018-04-29T00:03:59.516Z,8.00
2018-04-29T00:04:59.543Z,7.30
2018-04-29T00:05:59.548Z,6.30
2018-04-29T00:06:59.555Z,6.30
2018-04-29T00:07:59.521Z,7.70
2018-04-29T00:08:59.522Z,7.70
2018-04-29T00:09:59.529Z,5.00
2018-04-29T00:10:59.500Z,5.60
2018-04-29T00:11:59.472Z,7.70
2018-04-29T00:12:59.466Z,8.10
2018-04-29T00:13:59.455Z,5.10
2018-04-29T00:14:59.463Z,6.20
2018-04-29T00:15:59.513Z,6.60
2018-04-29T00:16:59.448Z,6.30
2018-04-29T00:17:59.445Z,6.90
2018-04-29T00:18:59.440Z,8.80
2018-04-29T00:19:59.436Z,6.80
2018-04-29T00:20:59.431Z,8.20
2018-04-29T00:21:59.428Z,5.70
2018-04-29T00:22:59.415Z,6.00
2018-04-29T00:23:59.413Z,6.30
2018-04-29T00:24:59.418Z,5.10
2018-04-29T00:25:59.401Z,6.90
2018-04-29T00:26:59.401Z,6.40
2018-04-29T00:27:59.393Z,6.30
2018-04-29T00:28:59.398Z,6.90
2018-04-29T00:29:59.399Z,6.70
2018-04-29T00:30:59.385Z,6.00
2018-04-29T00:31:59.383Z,6.20
2018-04-29T00:32:59.514Z,5.60
2018-04-29T00:33:59.365Z,5.90
2018-04-29T00:34:59.365Z,6.50
2018-04-29T00:35:59.363Z,7.20
2018-04-29T00:36:59.357Z,4.80
2018-04-29T00:37:59.360Z,8.30
2018-04-29T00:38:59.345Z,6.70
2018-04-29T00:39:59.348Z,7.10
2018-04-29T00:40:59.345Z,6.20
2018-04-29T00:41:59.334Z,7.30
2018-04-29T00:42:59.385Z,6.10
2018-04-29T00:43:59.324Z,5.70
2018-04-29T00:44:59.318Z,6.50
2018-04-29T00:45:59.331Z,6.50
2018-04-29T00:46:59.310Z,6.00
2018-04-29T00:47:59.303Z,6.90
2018-04-29T00:48:59.314Z,8.30
2018-04-29T00:49:59.323Z,5.60
2018-04-29T00:50:59.290Z,6.20
2018-04-29T00:51:59.285Z,7.20
2018-04-29T00:52:59.282Z,11.20
2018-04-29T00:53:59.305Z,7.40
2018-04-29T00:54:59.311Z,6.20
2018-04-29T00:55:59.348Z,6.00
2018-04-29T00:56:59.317Z,7.80
2018-04-29T00:57:59.284Z,6.30
2018-04-29T00:58:59.310Z,5.20
2018-04-29T00:59:59.297Z,4.50
2018-04-29T01:00:59.307Z,7.40
2018-04-29T01:01:59.318Z,6.90
2018-04-29T01:02:59.255Z,6.70
2018-04-29T01:03:59.260Z,4.60
2018-04-29T01:04:59.276Z,6.90
2018-04-29T01:05:59.280Z,6.70
2018-04-29T01:06:59.234Z,4.90
2018-04-29T01:07:59.243Z,6.00
2018-04-29T01:08:59.248Z,5.40
2018-04-29T01:09:59.796Z,5.20
2018-04-29T01:10:59.198Z,5.80
2018-04-29T01:11:59.226Z,5.80
2018-04-29T01:12:59.183Z,4.60
2018-04-29T01:13:59.201Z,6.80
2018-04-29T01:14:59.183Z,6.40
2018-04-29T01:15:59.200Z,6.50
2018-04-29T01:16:59.158Z,5.50
2018-04-29T01:17:59.161Z,5.10
2018-04-29T01:18:59.165Z,5.00
2018-04-29T01:19:59.151Z,7.00
2018-04-29T01:20:59.146Z,8.40
2018-04-29T01:21:59.137Z,6.80
2018-04-29T01:22:59.134Z,6.10
2018-04-29T01:23:59.132Z,7.50
2018-04-29T01:24:59.128Z,7.40
2018-04-29T01:25:59.125Z,7.50
2018-04-29T01:26:59.113Z,5.80
2018-04-29T01:27:59.206Z,5.50
2018-04-29T01:28:59.108Z,6.40
2018-04-29T01:29:59.098Z,4.00
2018-04-29T02:02:38.320Z,3.30
2018-04-29T02:03:38.280Z,4.30
2018-04-29T02:05:31.166Z,4.00
2018-04-29T02:06:31.151Z,7.00
2018-04-29T02:08:24.083Z,4.50
2018-04-29T02:09:24.047Z,5.80
2018-04-29T02:11:16.971Z,9.40
2018-04-29T02:12:16.949Z,7.60
2018-04-29T02:14:09.871Z,4.60
2018-04-29T02:15:09.925Z,5.30
2018-04-29T02:17:02.772Z,6.90
2018-04-29T02:18:02.735Z,4.70
2018-04-29T02:19:55.689Z,5.70
2018-04-29T02:20:55.663Z,5.20
2018-04-29T02:22:48.585Z,6.30
2018-04-29T02:23:48.562Z,8.10
2018-04-29T02:25:41.505Z,5.90
2018-04-29T02:26:41.505Z,7.20
2018-04-29T02:28:34.400Z,4.10
2018-04-29T02:29:34.373Z,7.20
2018-04-29T02:30:34.361Z,4.50
2018-04-29T02:31:34.436Z,6.70
2018-04-29T02:32:34.349Z,5.80
2018-04-29T02:33:34.337Z,6.80
2018-04-29T02:34:34.337Z,5.70
2018-04-29T02:35:34.373Z,5.40
2018-04-29T02:36:34.348Z,5.50
2018-04-29T02:37:34.350Z,8.10
2018-04-29T02:38:34.316Z,9.80
2018-04-29T02:39:34.305Z,6.20
2018-04-29T02:40:34.317Z,6.20
2018-04-29T02:41:34.294Z,6.40
2018-04-29T02:42:34.289Z,5.70
2018-04-29T02:43:34.285Z,5.60
2018-04-29T02:44:34.280Z,5.10
2018-04-29T02:45:34.275Z,8.50
2018-04-29T02:46:34.289Z,8.50
2018-04-29T02:47:34.260Z,4.90
2018-04-29T02:48:34.253Z,6.10
2018-04-29T02:49:34.251Z,5.50
2018-04-29T02:50:34.247Z,6.70
2018-04-29T02:51:34.237Z,6.00
2018-04-29T02:52:34.235Z,6.50
2018-04-29T02:53:34.225Z,6.30
2018-04-29T02:54:34.221Z,6.30
2018-04-29T02:55:34.261Z,4.80
2018-04-29T02:56:34.215Z,5.70
2018-04-29T02:57:34.203Z,5.20
2018-04-29T02:58:34.275Z,6.00
2018-04-29T02:59:34.240Z,5.80
2018-04-29T03:00:34.203Z,6.00
2018-04-29T03:01:34.187Z,4.90
2018-04-29T03:02:34.177Z,5.00
2018-04-29T03:03:34.175Z,8.40
2018-04-29T03:04:34.179Z,5.50
2018-04-29T03:05:34.167Z,8.30
2018-04-29T03:06:34.172Z,6.10
2018-04-29T03:07:34.228Z,7.10
2018-04-29T03:08:34.144Z,5.70
2018-04-29T03:09:34.148Z,5.90
2018-04-29T03:10:34.147Z,6.00
2018-04-29T03:11:34.124Z,5.70
2018-04-29T03:12:34.122Z,7.80
2018-04-29T03:13:34.121Z,5.20
2018-04-29T03:14:34.118Z,5.90
2018-04-29T03:15:34.116Z,8.90
2018-04-29T03:16:34.119Z,5.10
2018-04-29T03:17:34.095Z,6.20
2018-04-29T03:18:34.163Z,5.70
2018-04-29T03:19:34.085Z,5.60
2018-04-29T03:20:34.103Z,5.10
2018-04-29T03:21:34.120Z,5.30
2018-04-29T03:22:34.077Z,5.90
2018-04-29T03:23:34.057Z,7.40
2018-04-29T03:24:34.061Z,5.70
2018-04-29T03:25:34.055Z,7.50
2018-04-29T03:26:34.047Z,5.60
2018-04-29T03:27:34.041Z,7.70
2018-04-29T03:28:34.043Z,5.40
2018-04-29T03:29:34.031Z,6.60
2018-04-29T03:30:34.022Z,6.90
2018-04-29T03:31:34.017Z,6.60
2018-04-29T03:32:34.011Z,8.30
2018-04-29T03:33:34.022Z,6.10
2018-04-29T03:34:34.004Z,7.30
2018-04-29T03:35:34.016Z,7.40
2018-04-29T03:36:33.990Z,6.70
2018-04-29T03:37:34.018Z,7.40
2018-04-29T03:38:33.983Z,6.20
2018-04-29T03:39:33.969Z,6.80
2018-04-29T03:40:33.971Z,9.30
2018-04-29T03:41:33.961Z,6.50
2018-04-29T03:42:33.954Z,7.10
2018-04-29T03:43:33.981Z,10.70
2018-04-29T03:44:33.945Z,6.60
2018-04-29T03:45:33.939Z,7.20
2018-04-29T03:46:33.982Z,6.90
2018-04-29T03:47:33.933Z,6.50
2018-04-29T03:48:33.919Z,6.60
2018-04-29T03:49:33.915Z,7.00
2018-04-29T03:50:33.910Z,8.10
2018-04-29T03:51:33.912Z,5.60
2018-04-29T03:52:33.903Z,7.40
2018-04-29T03:53:33.886Z,6.30
2018-04-29T03:54:33.905Z,6.00
2018-04-29T03:55:33.881Z,7.40
2018-04-29T03:56:33.898Z,5.50
2018-04-29T03:57:33.867Z,9.10
2018-04-29T03:58:33.943Z,7.00
2018-04-29T03:59:33.888Z,7.30
2018-04-29T04:00:33.860Z,6.70
2018-04-29T04:01:33.869Z,6.10
2018-04-29T04:02:33.875Z,7.50
2018-04-29T04:03:33.841Z,5.30
2018-04-29T04:04:33.834Z,6.80
2018-04-29T04:05:33.893Z,8.40
2018-04-29T04:06:33.907Z,6.30
2018-04-29T04:07:33.835Z,7.50
2018-04-29T04:08:33.819Z,6.30
2018-04-29T04:09:33.801Z,7.50
2018-04-29T04:10:33.802Z,8.30
2018-04-29T04:11:33.795Z,8.70
2018-04-29T04:12:33.794Z,9.50
2018-04-29T04:13:33.785Z,9.10
2018-04-29T04:14:33.778Z,8.30
2018-04-29T04:15:33.775Z,6.50
2018-04-29T04:16:33.796Z,5.70
2018-04-29T04:17:33.760Z,5.50
2018-04-29T04:18:33.757Z,6.10
2018-04-29T04:19:33.751Z,7.20
2018-04-29T04:20:33.746Z,6.80
2018-04-29T04:21:33.737Z,5.70
2018-04-29T04:22:33.734Z,7.40
2018-04-29T04:23:33.734Z,5.70
2018-04-29T04:24:33.734Z,7.80
2018-04-29T04:25:33.729Z,7.60
2018-04-29T04:26:33.716Z,6.30
2018-04-29T04:27:33.709Z,6.80
2018-04-29T04:28:33.699Z,7.20
2018-04-29T04:29:33.698Z,8.10
2018-04-29T04:30:33.724Z,5.70
2018-04-29T04:31:33.686Z,7.60
2018-04-29T04:32:33.681Z,7.10
2018-04-29T04:33:33.681Z,7.50
2018-04-29T04:34:33.681Z,6.70
2018-04-29T04:35:33.665Z,5.40
2018-04-29T04:36:33.667Z,6.20
2018-04-29T04:37:33.655Z,6.90
2018-04-29T04:38:33.657Z,7.30
2018-04-29T04:39:33.651Z,6.50
2018-04-29T04:40:33.739Z,5.80
2018-04-29T04:41:33.638Z,5.60
2018-04-29T04:42:33.641Z,6.10
2018-04-29T04:43:33.637Z,7.70
2018-04-29T04:44:33.626Z,6.30
2018-04-29T04:45:33.623Z,6.50
2018-04-29T04:46:33.646Z,5.70
2018-04-29T04:47:33.619Z,5.90
2018-04-29T04:48:33.605Z,6.40
2018-04-29T04:49:33.607Z,6.80
2018-04-29T04:50:33.730Z,5.10
2018-04-29T04:51:33.611Z,8.30
2018-04-29T04:52:33.592Z,5.60
2018-04-29T04:53:33.597Z,6.50
2018-04-29T04:54:33.578Z,6.20
2018-04-29T04:55:33.574Z,7.00
2018-04-29T04:56:33.627Z,6.10
2018-04-29T04:57:33.575Z,7.30
2018-04-29T04:58:33.560Z,6.10
2018-04-29T04:59:33.562Z,6.50
2018-04-29T05:00:33.560Z,7.20
2018-04-29T05:01:33.553Z,7.70
2018-04-29T05:02:33.580Z,5.60
2018-04-29T05:03:33.551Z,4.70
2018-04-29T05:04:33.542Z,6.90
2018-04-29T05:05:33.534Z,6.80
2018-04-29T05:06:33.527Z,5.30
2018-04-29T05:07:33.577Z,5.70
2018-04-29T05:08:33.526Z,5.00
2018-04-29T05:09:33.519Z,6.00
2018-04-29T05:10:33.519Z,5.20
2018-04-29T05:11:33.545Z,5.90
2018-04-29T05:12:33.547Z,6.20
2018-04-29T05:13:33.548Z,5.70
2018-04-29T05:14:33.548Z,5.50
2018-04-29T05:15:33.559Z,5.40
2018-04-29T05:16:33.510Z,5.90
2018-04-29T05:17:34.465Z,5.30
2018-04-29T05:18:33.573Z,8.70
2018-04-29T05:19:33.490Z,5.70
2018-04-29T05:20:33.483Z,6.40
2018-04-29T05:21:33.513Z,6.30
2018-04-29T05:22:33.497Z,6.40
2018-04-29T05:23:33.481Z,5.40
2018-04-29T05:24:34.969Z,5.50
2018-04-29T05:25:33.497Z,6.80
2018-04-29T05:26:33.498Z,7.00
2018-04-29T05:27:33.528Z,6.20
2018-04-29T05:28:33.537Z,7.60
2018-04-29T05:29:33.444Z,7.50
2018-04-29T05:30:33.454Z,5.10
2018-04-29T05:31:33.463Z,5.30
2018-04-29T05:32:33.465Z,6.60
2018-04-29T05:33:33.438Z,6.80
2018-04-29T05:34:33.443Z,5.70
2018-04-29T05:35:33.485Z,6.70
2018-04-29T05:36:33.436Z,8.90
2018-04-29T05:37:33.494Z,5.90
2018-04-29T05:38:33.474Z,8.10
2018-04-29T05:39:33.412Z,7.80
2018-04-29T05:40:33.413Z,6.80
2018-04-29T05:41:33.428Z,6.20
2018-04-29T05:42:33.399Z,7.50
2018-04-29T05:43:33.979Z,8.00
2018-04-29T05:44:33.427Z,5.50
2018-04-29T05:45:33.996Z,6.30
2018-04-29T05:46:33.429Z,7.20
2018-04-29T05:47:33.405Z,5.50
2018-04-29T05:48:33.369Z,6.00
2018-04-29T05:49:36.882Z,5.10
2018-04-29T05:50:33.408Z,5.70
2018-04-29T05:51:33.383Z,5.60
2018-04-29T05:52:33.410Z,6.00
2018-04-29T05:53:33.416Z,6.50
2018-04-29T05:54:33.387Z,7.30
2018-04-29T05:55:33.403Z,7.20
2018-04-29T05:56:33.353Z,5.60
2018-04-29T05:57:33.420Z,5.20
2018-04-29T05:58:33.373Z,7.40
2018-04-29T05:59:33.344Z,6.00
2018-04-29T06:00:33.347Z,4.90
2018-04-29T06:01:33.327Z,5.90
2018-04-29T06:02:33.351Z,5.20
2018-04-29T06:03:33.339Z,6.60
2018-04-29T06:04:33.363Z,6.20
2018-04-29T06:05:33.353Z,5.80
2018-04-29T06:06:33.378Z,6.90
2018-04-29T06:07:33.324Z,6.60
2018-04-29T06:08:33.883Z,6.70
2018-04-29T06:09:33.983Z,6.40
2018-04-29T06:10:33.276Z,5.80
2018-04-29T06:11:33.275Z,6.40
2018-04-29T06:12:34.010Z,7.00
2018-04-29T06:13:33.281Z,4.90
2018-04-29T06:14:33.262Z,5.70
2018-04-29T06:15:33.254Z,5.60
2018-04-29T06:16:33.308Z,6.50
2018-04-29T06:17:33.252Z,5.30
2018-04-29T06:18:33.279Z,7.20
2018-04-29T06:19:33.235Z,5.80
2018-04-29T06:20:33.316Z,5.30
2018-04-29T06:21:33.256Z,6.10
2018-04-29T06:22:33.288Z,5.90
2018-04-29T06:23:33.279Z,6.60
2018-04-29T06:24:33.224Z,6.20
2018-04-29T06:25:33.218Z,6.40
2018-04-29T06:26:33.215Z,5.30
2018-04-29T06:27:33.212Z,8.80
2018-04-29T06:28:33.245Z,5.20
2018-04-29T06:29:33.273Z,6.50
2018-04-29T06:30:33.230Z,5.40
2018-04-29T06:31:33.256Z,7.20
2018-04-29T06:32:33.253Z,5.30
2018-04-29T06:33:33.227Z,6.60
2018-04-29T06:34:33.272Z,4.80
2018-04-29T06:35:33.222Z,5.90
2018-04-29T06:36:33.202Z,6.30
2018-04-29T06:37:33.277Z,5.20
2018-04-29T06:38:33.273Z,5.30
2018-04-29T06:39:33.198Z,5.80
2018-04-29T06:40:33.196Z,5.50
2018-04-29T06:41:33.200Z,4.80
2018-04-29T06:42:33.221Z,5.40
2018-04-29T06:43:33.188Z,4.80
2018-04-29T06:44:33.202Z,5.50
2018-04-29T06:45:33.186Z,6.40
2018-04-29T06:46:34.027Z,5.30
2018-04-29T06:47:33.884Z,8.00
2018-04-29T06:48:33.273Z,6.30
2018-04-29T06:49:33.239Z,5.00
2018-04-29T06:50:33.218Z,5.50
2018-04-29T06:51:33.169Z,5.60
2018-04-29T06:52:33.185Z,6.40
2018-04-29T06:53:33.197Z,6.90
2018-04-29T06:54:33.202Z,5.80
2018-04-29T06:55:33.152Z,5.90
2018-04-29T06:56:33.199Z,5.00
2018-04-29T06:57:33.206Z,5.30
2018-04-29T06:58:33.169Z,5.20
2018-04-29T06:59:33.215Z,7.30
2018-04-29T07:00:33.191Z,6.20
2018-04-29T07:01:33.141Z,5.50
2018-04-29T07:02:33.143Z,6.00
2018-04-29T07:03:33.160Z,7.50
2018-04-29T07:04:33.157Z,6.80
2018-04-29T07:05:33.164Z,6.50
2018-04-29T07:06:33.150Z,6.90
2018-04-29T07:07:34.138Z,5.30
2018-04-29T07:08:33.122Z,5.50
2018-04-29T07:09:33.161Z,7.10
2018-04-29T07:10:33.244Z,5.80
2018-04-29T07:11:33.117Z,6.50
2018-04-29T07:12:33.182Z,9.10
2018-04-29T07:13:33.113Z,6.20
2018-04-29T07:14:33.156Z,7.10
2018-04-29T07:15:33.121Z,5.80
2018-04-29T07:16:33.190Z,5.60
2018-04-29T07:17:33.111Z,6.70
2018-04-29T07:18:33.148Z,6.90
2018-04-29T07:19:33.113Z,7.20
2018-04-29T07:20:33.104Z,5.90
2018-04-29T07:21:33.169Z,5.30
2018-04-29T07:22:33.113Z,5.30
2018-04-29T07:23:33.099Z,8.10
2018-04-29T07:24:33.204Z,5.80
2018-04-29T07:25:33.182Z,5.40
2018-04-29T07:26:33.140Z,6.80
2018-04-29T07:27:33.198Z,5.80
2018-04-29T07:28:33.172Z,5.60
2018-04-29T07:29:33.203Z,5.40
2018-04-29T07:30:33.153Z,5.80
2018-04-29T07:31:33.157Z,5.40
2018-04-29T07:32:33.233Z,6.40
2018-04-29T07:33:33.225Z,5.90
2018-04-29T07:34:33.258Z,5.70
2018-04-29T07:35:33.187Z,5.00
2018-04-29T07:36:33.364Z,5.10
2018-04-29T07:37:33.279Z,6.90
2018-04-29T07:38:33.209Z,5.10
2018-04-29T07:39:33.279Z,5.20
2018-04-29T07:40:33.286Z,5.40
2018-04-29T07:41:33.284Z,4.90
2018-04-29T07:42:33.303Z,5.40
2018-04-29T07:43:33.309Z,5.90
2018-04-29T07:44:33.309Z,4.80
2018-04-29T07:45:33.305Z,6.40
2018-04-29T07:46:33.383Z,5.10
2018-04-29T07:47:33.320Z,5.30
2018-04-29T07:48:33.328Z,6.40
2018-04-29T07:49:33.328Z,4.50
2018-04-29T07:50:34.032Z,5.40
2018-04-29T07:51:33.327Z,4.50
2018-04-29T07:52:33.426Z,6.10
2018-04-29T07:53:33.452Z,5.50
2018-04-29T07:55:33.393Z,5.40
2018-04-29T07:56:33.473Z,4.50
2018-04-29T07:57:33.408Z,4.90
2018-04-29T07:58:33.430Z,5.50
2018-04-29T07:59:33.417Z,4.50
2018-04-29T08:00:33.501Z,4.20
2018-04-29T08:01:54.453Z,6.30
2018-04-29T08:02:33.503Z,4.50
2018-04-29T08:03:33.511Z,5.10
2018-04-29T08:04:33.563Z,4.10
2018-04-29T08:05:33.516Z,4.60
2018-04-29T08:06:33.520Z,4.20
2018-04-29T08:07:54.632Z,5.00
2018-04-29T08:08:33.551Z,4.10
2018-04-29T08:09:33.549Z,4.60
2018-04-29T08:10:33.585Z,5.40
2018-04-29T08:11:33.552Z,4.40
2018-04-29T08:12:33.640Z,6.70
2018-04-29T08:13:54.593Z,5.40
2018-04-29T08:14:33.631Z,6.00
2018-04-29T08:15:33.630Z,4.00
2018-04-29T08:16:33.645Z,4.00
2018-04-29T08:17:33.637Z,4.60
2018-04-29T08:18:33.647Z,4.60
2018-04-29T08:19:54.677Z,3.90
2018-04-29T08:20:33.678Z,4.50
2018-04-29T08:21:33.691Z,5.80
2018-04-29T08:22:33.818Z,4.50
2018-04-29T08:23:33.737Z,5.40
2018-04-29T08:24:33.734Z,5.40
2018-04-29T08:25:54.764Z,4.40
2018-04-29T08:26:33.758Z,5.70
2018-04-29T08:27:33.836Z,4.30
2018-04-29T08:28:33.793Z,5.20
2018-04-29T08:29:33.809Z,5.20
2018-04-29T08:30:33.848Z,3.60
2018-04-29T08:31:54.856Z,4.10
2018-04-29T08:32:33.875Z,4.60
2018-04-29T08:33:33.864Z,4.10
2018-04-29T08:34:33.932Z,4.40
2018-04-29T08:35:33.929Z,4.20
2018-04-29T08:36:33.916Z,4.00
2018-04-29T08:37:54.966Z,3.60
2018-04-29T08:38:33.956Z,3.80
2018-04-29T08:39:33.975Z,4.40
2018-04-29T08:40:33.976Z,4.60
2018-04-29T08:41:33.994Z,4.90
2018-04-29T08:42:34.010Z,5.70
2018-04-29T08:43:55.038Z,5.10
2018-04-29T08:44:34.037Z,4.20
2018-04-29T08:45:34.066Z,4.50
2018-04-29T08:46:34.070Z,3.80
2018-04-29T08:47:34.089Z,3.90
2018-04-29T08:48:34.122Z,5.00
2018-04-29T08:49:55.129Z,5.40
2018-04-29T08:50:34.138Z,4.80
2018-04-29T08:51:34.144Z,5.30
2018-04-29T08:52:34.246Z,4.60
2018-04-29T08:53:34.262Z,4.60
2018-04-29T08:54:34.204Z,5.20
2018-04-29T08:55:55.266Z,3.80
2018-04-29T08:56:34.232Z,4.50
2018-04-29T08:57:34.254Z,5.20
2018-04-29T08:58:34.267Z,7.10
2018-04-29T08:59:34.300Z,3.40
2018-04-29T09:00:34.296Z,5.90
2018-04-29T09:01:55.370Z,3.20
2018-04-29T09:02:34.362Z,3.80
2018-04-29T09:03:34.460Z,4.30
2018-04-29T09:04:34.369Z,6.40
2018-04-29T09:05:34.393Z,4.50
2018-04-29T09:06:34.399Z,3.40
2018-04-29T09:07:55.430Z,4.90
2018-04-29T09:08:34.448Z,4.30
2018-04-29T09:09:34.457Z,4.60
2018-04-29T09:10:34.478Z,4.00
2018-04-29T09:11:34.510Z,5.10
2018-04-29T09:12:34.528Z,4.30
2018-04-29T09:13:55.541Z,4.40
2018-04-29T09:14:34.645Z,5.70
2018-04-29T09:15:34.562Z,4.50
2018-04-29T09:16:34.622Z,4.90
2018-04-29T09:17:34.737Z,5.80
2018-04-29T09:18:34.648Z,4.40
2018-04-29T09:19:55.658Z,3.60
2018-04-29T09:20:34.671Z,4.30
2018-04-29T09:21:34.671Z,4.30
2018-04-29T09:22:34.768Z,7.80
2018-04-29T09:23:34.800Z,4.90
2018-04-29T09:24:34.714Z,4.50
2018-04-29T09:25:55.766Z,4.60
2018-04-29T09:26:34.760Z,3.90
2018-04-29T09:27:34.770Z,5.10
2018-04-29T09:28:34.789Z,3.30
2018-04-29T09:29:34.805Z,3.70
2018-04-29T09:30:34.828Z,3.60
2018-04-29T09:31:55.857Z,4.80
2018-04-29T09:32:34.859Z,4.50
2018-04-29T09:33:34.887Z,4.30
2018-04-29T09:34:34.897Z,6.50
2018-04-29T09:35:34.922Z,3.30
2018-04-29T09:36:34.954Z,4.50
2018-04-29T09:37:56.010Z,5.60
2018-04-29T09:38:34.968Z,4.90
2018-04-29T09:39:34.981Z,6.10
2018-04-29T09:40:35.036Z,4.00
2018-04-29T09:41:35.019Z,3.70
2018-04-29T09:42:35.050Z,4.10
2018-04-29T09:43:56.073Z,5.10
2018-04-29T09:44:35.076Z,4.10
2018-04-29T09:45:35.099Z,5.60
2018-04-29T09:46:35.133Z,5.10
2018-04-29T09:47:35.153Z,5.80
2018-04-29T09:48:35.186Z,6.90
2018-04-29T09:49:56.186Z,5.90
2018-04-29T09:50:35.183Z,4.20
2018-04-29T09:51:35.205Z,5.10
2018-04-29T09:52:35.248Z,3.70
2018-04-29T09:53:35.238Z,4.40
2018-04-29T09:54:35.250Z,6.50
2018-04-29T09:55:56.285Z,3.30
2018-04-29T09:56:35.282Z,4.00
2018-04-29T09:57:35.294Z,3.50
2018-04-29T09:58:35.336Z,5.00
2018-04-29T09:59:35.360Z,3.40
2018-04-29T10:00:35.384Z,5.20
2018-04-29T10:01:56.444Z,5.70
2018-04-29T10:02:35.408Z,4.40
2018-04-29T10:03:35.459Z,5.00
2018-04-29T10:04:35.422Z,4.50
2018-04-29T10:05:35.467Z,4.40
2018-04-29T10:06:35.444Z,5.90
2018-04-29T10:07:56.490Z,5.50
2018-04-29T10:08:35.491Z,4.40
2018-04-29T10:09:35.520Z,7.50
2018-04-29T10:10:35.530Z,5.60
2018-04-29T10:11:35.537Z,6.00
2018-04-29T10:12:35.561Z,3.50
2018-04-29T10:13:56.599Z,3.90
2018-04-29T10:14:35.589Z,5.30
2018-04-29T10:15:35.638Z,6.00
2018-04-29T10:16:35.669Z,3.60
2018-04-29T10:17:35.676Z,3.60
2018-04-29T10:18:35.663Z,5.90
2018-04-29T10:19:56.701Z,5.20
2018-04-29T10:20:35.698Z,4.60
2018-04-29T10:21:35.738Z,5.10
2018-04-29T10:22:35.771Z,3.90
2018-04-29T10:23:35.757Z,3.70
2018-04-29T10:24:35.780Z,5.10
2018-04-29T10:25:56.805Z,4.80
2018-04-29T10:26:35.813Z,4.40
2018-04-29T10:27:35.853Z,4.10
2018-04-29T10:28:35.878Z,4.20
2018-04-29T10:29:35.865Z,4.70
2018-04-29T10:30:35.890Z,5.30
2018-04-29T10:31:56.996Z,6.40
2018-04-29T10:32:35.944Z,3.70
2018-04-29T10:33:35.958Z,5.20
2018-04-29T10:34:35.966Z,6.80
2018-04-29T10:35:35.984Z,6.60
2018-04-29T10:36:36.050Z,7.10
2018-04-29T10:37:57.034Z,7.50
2018-04-29T10:38:36.037Z,6.50
2018-04-29T10:39:36.056Z,4.40
2018-04-29T10:40:36.078Z,7.70
2018-04-29T10:41:36.090Z,6.90
2018-04-29T10:42:36.158Z,6.40
2018-04-29T10:43:57.152Z,8.30
2018-04-29T10:44:36.151Z,6.60
2018-04-29T10:45:36.162Z,6.00
2018-04-29T10:46:36.203Z,4.60
2018-04-29T10:47:36.197Z,7.30
2018-04-29T10:48:36.247Z,6.50
2018-04-29T10:49:57.247Z,4.20
2018-04-29T10:50:36.252Z,9.70
2018-04-29T10:51:36.267Z,6.90
2018-04-29T10:52:36.392Z,6.40
2018-04-29T10:53:36.325Z,5.80
2018-04-29T10:54:36.329Z,8.50
2018-04-29T10:55:57.380Z,5.80
2018-04-29T10:56:36.378Z,8.30
2018-04-29T10:57:36.392Z,7.00
2018-04-29T10:58:36.398Z,6.20
2018-04-29T10:59:36.435Z,5.70
2018-04-29T11:00:36.434Z,8.20
2018-04-29T11:01:57.463Z,5.10
2018-04-29T11:02:36.490Z,7.20
2018-04-29T11:03:36.545Z,7.90
2018-04-29T11:04:36.559Z,6.10
2018-04-29T11:05:36.519Z,7.00
2018-04-29T11:06:36.566Z,6.30
2018-04-29T11:07:57.572Z,6.40
2018-04-29T11:08:36.566Z,7.60
2018-04-29T11:09:36.585Z,8.90
2018-04-29T11:10:36.599Z,8.60
2018-04-29T11:11:36.610Z,7.20
2018-04-29T11:12:36.627Z,7.70
2018-04-29T11:13:57.661Z,9.10
2018-04-29T11:14:36.655Z,8.80
2018-04-29T11:15:36.724Z,8.30
2018-04-29T11:16:36.754Z,6.90
2018-04-29T11:17:36.759Z,7.30
2018-04-29T11:18:36.704Z,5.80
2018-04-29T11:19:57.724Z,7.20
2018-04-29T11:20:36.740Z,6.30
2018-04-29T11:21:36.750Z,6.80
2018-04-29T11:22:36.759Z,6.70
2018-04-29T11:23:36.766Z,8.60
2018-04-29T11:24:36.788Z,9.30
2018-04-29T11:25:57.807Z,6.90
2018-04-29T11:26:36.806Z,5.70
2018-04-29T11:27:36.812Z,6.50
2018-04-29T11:28:36.844Z,6.70
2018-04-29T11:29:36.859Z,7.80
2018-04-29T11:30:36.847Z,7.70
2018-04-29T11:31:57.878Z,8.40
2018-04-29T11:32:36.871Z,10.40
2018-04-29T11:33:36.903Z,9.00
2018-04-29T11:34:36.930Z,7.60
2018-04-29T11:35:36.905Z,7.80
2018-04-29T11:36:36.912Z,5.90
2018-04-29T11:37:57.938Z,8.10
2018-04-29T11:38:36.986Z,8.50
2018-04-29T11:39:36.990Z,8.00
2018-04-29T11:40:37.045Z,8.40
2018-04-29T11:41:36.997Z,7.20
2018-04-29T11:42:37.030Z,7.30
2018-04-29T11:43:58.025Z,8.30
2018-04-29T11:44:37.031Z,7.60
2018-04-29T11:45:37.042Z,11.70
2018-04-29T11:46:37.041Z,7.30
2018-04-29T11:47:37.042Z,6.10
2018-04-29T11:48:37.109Z,10.00
2018-04-29T11:49:58.130Z,9.40
2018-04-29T11:50:37.201Z,8.20
2018-04-29T11:51:37.110Z,7.10
2018-04-29T11:52:37.132Z,10.70
2018-04-29T11:53:37.146Z,10.00
2018-04-29T11:54:37.140Z,7.80
2018-04-29T11:55:58.154Z,8.90
2018-04-29T11:56:37.259Z,7.90
2018-04-29T11:57:37.199Z,9.20
2018-04-29T11:58:37.169Z,7.60
2018-04-29T11:59:37.172Z,12.30
2018-04-29T12:00:37.256Z,9.10
2018-04-29T12:01:58.235Z,10.30
2018-04-29T12:02:37.282Z,9.20
2018-04-29T12:03:37.195Z,10.40
2018-04-29T12:04:37.240Z,10.90
2018-04-29T12:05:37.236Z,9.80
2018-04-29T12:06:37.250Z,10.10
2018-04-29T12:07:58.267Z,10.00
2018-04-29T12:08:37.215Z,9.80
2018-04-29T12:09:37.222Z,7.60
2018-04-29T12:10:37.223Z,9.20
2018-04-29T12:11:37.232Z,9.10
2018-04-29T12:12:37.243Z,7.40
2018-04-29T12:13:58.289Z,10.80
2018-04-29T12:14:37.262Z,7.90
2018-04-29T12:15:37.279Z,8.70
2018-04-29T12:16:37.327Z,9.60
2018-04-29T12:17:37.293Z,8.20
2018-04-29T12:18:37.354Z,8.90
2018-04-29T12:19:58.420Z,10.50
2018-04-29T12:20:37.334Z,10.80
2018-04-29T12:21:37.370Z,9.40
2018-04-29T12:22:37.376Z,8.30
2018-04-29T12:23:37.436Z,10.20
2018-04-29T12:24:37.461Z,6.00
2018-04-29T12:25:58.403Z,7.30
2018-04-29T12:26:37.449Z,9.90
2018-04-29T12:27:37.421Z,7.70
2018-04-29T12:28:37.423Z,8.50
2018-04-29T12:29:37.478Z,8.50
2018-04-29T12:30:37.495Z,11.60
2018-04-29T12:31:58.485Z,8.70
2018-04-29T12:32:37.496Z,7.70
2018-04-29T12:33:37.548Z,7.20
2018-04-29T12:34:37.522Z,7.80
2018-04-29T12:35:37.537Z,9.90
2018-04-29T12:36:37.529Z,8.90
2018-04-29T12:37:58.525Z,8.90
2018-04-29T12:38:37.589Z,10.70
2018-04-29T12:39:38.074Z,9.20
2018-04-29T12:40:37.549Z,9.80
2018-04-29T12:41:37.575Z,9.50
2018-04-29T12:42:37.577Z,8.00
2018-04-29T12:43:58.571Z,8.40
2018-04-29T12:44:37.586Z,9.80
2018-04-29T12:45:37.585Z,10.30
2018-04-29T12:46:37.676Z,10.30
2018-04-29T12:47:37.603Z,10.40
2018-04-29T12:48:37.604Z,9.20
2018-04-29T12:49:58.653Z,7.80
2018-04-29T12:50:37.613Z,9.30
2018-04-29T12:51:37.633Z,8.40
2018-04-29T12:52:37.649Z,12.00
2018-04-29T12:53:37.659Z,9.10
2018-04-29T12:54:37.653Z,7.20
2018-04-29T12:55:58.647Z,9.00
2018-04-29T12:56:37.657Z,12.20
2018-04-29T12:57:37.665Z,8.30
2018-04-29T12:58:37.672Z,9.00
2018-04-29T12:59:37.692Z,11.30
2018-04-29T13:00:37.656Z,8.80
2018-04-29T13:01:58.674Z,7.20
2018-04-29T13:02:37.696Z,6.60
2018-04-29T13:03:37.672Z,10.20
2018-04-29T13:04:37.677Z,9.20
2018-04-29T13:05:37.737Z,10.30
2018-04-29T13:06:37.687Z,12.10
2018-04-29T13:07:58.695Z,10.40
2018-04-29T13:08:37.756Z,7.60
2018-04-29T13:09:37.719Z,8.40
2018-04-29T13:10:37.706Z,9.20
2018-04-29T13:11:37.723Z,8.40
2018-04-29T13:12:37.712Z,10.00
2018-04-29T13:13:58.745Z,8.10
2018-04-29T13:14:37.748Z,9.50
2018-04-29T13:15:37.780Z,9.40
2018-04-29T13:16:37.767Z,11.00
2018-04-29T13:17:37.762Z,12.00
2018-04-29T13:18:37.816Z,7.40
2018-04-29T13:19:58.796Z,10.80
2018-04-29T13:20:37.769Z,12.10
2018-04-29T13:21:37.759Z,9.00
2018-04-29T13:22:37.775Z,9.90
2018-04-29T13:23:37.800Z,10.10
2018-04-29T13:24:37.858Z,8.10
2018-04-29T13:25:58.811Z,8.30
2018-04-29T13:26:37.786Z,10.00
2018-04-29T13:27:37.830Z,9.50
2018-04-29T13:28:37.822Z,10.10
2018-04-29T13:29:37.829Z,5.10
2018-04-29T13:30:37.802Z,7.20
2018-04-29T13:31:58.817Z,8.10
2018-04-29T13:32:37.893Z,8.80
2018-04-29T13:33:37.813Z,10.40
2018-04-29T13:34:37.825Z,13.20
2018-04-29T13:35:37.860Z,8.90
2018-04-29T13:36:37.825Z,9.30
2018-04-29T13:37:58.828Z,9.20
2018-04-29T13:38:37.812Z,10.20
2018-04-29T13:39:37.814Z,7.00
2018-04-29T13:40:37.818Z,12.40
2018-04-29T13:41:37.856Z,11.90
2018-04-29T13:42:37.830Z,9.00
2018-04-29T13:43:58.887Z,10.20
2018-04-29T13:44:37.846Z,9.70
2018-04-29T13:45:37.924Z,8.40
2018-04-29T13:46:37.882Z,8.50
2018-04-29T13:47:37.896Z,8.40
2018-04-29T13:48:37.868Z,9.70
2018-04-29T13:49:58.873Z,8.90
2018-04-29T13:50:37.921Z,10.40
2018-04-29T13:51:37.909Z,9.90
2018-04-29T13:52:37.945Z,9.60
2018-04-29T13:53:37.986Z,8.50
2018-04-29T13:54:38.020Z,6.10
2018-04-29T13:55:58.911Z,9.30
2018-04-29T13:56:37.924Z,9.40
2018-04-29T13:57:38.051Z,7.70
2018-04-29T13:58:37.960Z,8.20